sensor_id;sensor_type;location;lat;lon;timestamp;temperature;humidity
38359;DHT22;42072;48.044;14.416;2023-06-22T00:00:22;20.30;99.90
38359;DHT22;42072;48.044;14.416;2023-06-22T00:02:49;20.30;99.90
38359;DHT22;42072;48.044;14.416;2023-06-22T00:05:16;20.20;99.90
38359;DHT22;42072;48.044;14.416;2023-06-22T00:07:43;20.10;99.90
38359;DHT22;42072;48.044;14.416;2023-06-22T00:10:11;20.00;99.90
38359;DHT22;42072;48.044;14.416;2023-06-22T00:12:38;20.00;99.90
38359;DHT22;42072;48.044;14.416;2023-06-22T00:15:05;19.90;1.00
38359;DHT22;42072;48.044;14.416;2023-06-22T00:17:32;19.80;1.00
38359;DHT22;42072;48.044;14.416;2023-06-22T00:19:59;19.70;1.00
38359;DHT22;42072;48.044;14.416;2023-06-22T00:22:27;19.60;1.00
38359;DHT22;42072;48.044;14.416;2023-06-22T00:24:57;19.60;1.00
38359;DHT22;42072;48.044;14.416;2023-06-22T00:27:24;19.50;1.00
38359;DHT22;42072;48.044;14.416;2023-06-22T00:29:51;19.50;1.00
38359;DHT22;42072;48.044;14.416;2023-06-22T00:32:18;19.50;1.00
38359;DHT22;42072;48.044;14.416;2023-06-22T00:34:46;19.50;1.00
38359;DHT22;42072;48.044;14.416;2023-06-22T00:37:13;19.50;1.00
38359;DHT22;42072;48.044;14.416;2023-06-22T00:39:41;19.60;1.00
38359;DHT22;42072;48.044;14.416;2023-06-22T00:42:08;19.60;1.00
38359;DHT22;42072;48.044;14.416;2023-06-22T00:44:36;19.60;1.00
38359;DHT22;42072;48.044;14.416;2023-06-22T00:47:03;19.60;1.00
38359;DHT22;42072;48.044;14.416;2023-06-22T00:49:31;19.50;1.00
38359;DHT22;42072;48.044;14.416;2023-06-22T00:51:58;19.50;1.00
38359;DHT22;42072;48.044;14.416;2023-06-22T00:54:25;19.50;1.00
38359;DHT22;42072;48.044;14.416;2023-06-22T00:56:54;19.40;1.00
38359;DHT22;42072;48.044;14.416;2023-06-22T00:59:23;19.30;1.00
38359;DHT22;42072;48.044;14.416;2023-06-22T01:01:51;19.30;1.00
38359;DHT22;42072;48.044;14.416;2023-06-22T01:04:18;19.20;1.00
38359;DHT22;42072;48.044;14.416;2023-06-22T01:06:58;19.20;1.00
38359;DHT22;42072;48.044;14.416;2023-06-22T01:09:35;19.20;1.00
38359;DHT22;42072;48.044;14.416;2023-06-22T01:12:08;19.10;1.00
38359;DHT22;42072;48.044;14.416;2023-06-22T01:15:08;19.20;1.00
38359;DHT22;42072;48.044;14.416;2023-06-22T01:17:40;19.20;1.00
38359;DHT22;42072;48.044;14.416;2023-06-22T01:20:08;19.20;1.00
38359;DHT22;42072;48.044;14.416;2023-06-22T01:23:09;19.10;1.00
38359;DHT22;42072;48.044;14.416;2023-06-22T01:26:18;19.20;1.00
38359;DHT22;42072;48.044;14.416;2023-06-22T01:28:48;19.20;1.00
38359;DHT22;42072;48.044;14.416;2023-06-22T01:31:18;19.20;1.00
38359;DHT22;42072;48.044;14.416;2023-06-22T01:33:53;19.20;1.00
38359;DHT22;42072;48.044;14.416;2023-06-22T01:36:22;19.20;1.00
38359;DHT22;42072;48.044;14.416;2023-06-22T01:38:49;19.20;1.00
38359;DHT22;42072;48.044;14.416;2023-06-22T01:41:18;19.20;1.00
38359;DHT22;42072;48.044;14.416;2023-06-22T01:43:46;19.30;1.00
38359;DHT22;42072;48.044;14.416;2023-06-22T01:46:14;19.30;1.00
38359;DHT22;42072;48.044;14.416;2023-06-22T01:48:41;19.30;1.00
38359;DHT22;42072;48.044;14.416;2023-06-22T01:51:08;19.30;1.00
38359;DHT22;42072;48.044;14.416;2023-06-22T01:53:35;19.30;1.00
38359;DHT22;42072;48.044;14.416;2023-06-22T01:56:03;19.40;1.00
38359;DHT22;42072;48.044;14.416;2023-06-22T01:58:31;19.30;1.00
38359;DHT22;42072;48.044;14.416;2023-06-22T02:01:12;19.30;1.00
38359;DHT22;42072;48.044;14.416;2023-06-22T02:04:15;19.30;1.00
38359;DHT22;42072;48.044;14.416;2023-06-22T02:06:46;19.10;1.00
38359;DHT22;42072;48.044;14.416;2023-06-22T02:09:17;19.10;1.00
38359;DHT22;42072;48.044;14.416;2023-06-22T02:11:47;19.10;1.00
38359;DHT22;42072;48.044;14.416;2023-06-22T02:14:16;19.00;1.00
38359;DHT22;42072;48.044;14.416;2023-06-22T02:16:46;19.00;1.00
38359;DHT22;42072;48.044;14.416;2023-06-22T02:19:13;18.90;1.00
38359;DHT22;42072;48.044;14.416;2023-06-22T02:21:45;18.90;1.00
38359;DHT22;42072;48.044;14.416;2023-06-22T02:24:12;18.80;1.00
38359;DHT22;42072;48.044;14.416;2023-06-22T02:26:40;18.80;1.00
38359;DHT22;42072;48.044;14.416;2023-06-22T02:29:09;18.80;1.00
38359;DHT22;42072;48.044;14.416;2023-06-22T02:31:36;18.80;1.00
38359;DHT22;42072;48.044;14.416;2023-06-22T02:34:03;18.80;1.00
38359;DHT22;42072;48.044;14.416;2023-06-22T02:36:30;18.80;1.00
38359;DHT22;42072;48.044;14.416;2023-06-22T02:38:58;18.80;1.00
38359;DHT22;42072;48.044;14.416;2023-06-22T02:41:28;18.70;1.00
38359;DHT22;42072;48.044;14.416;2023-06-22T02:43:55;18.70;1.00
38359;DHT22;42072;48.044;14.416;2023-06-22T02:46:22;18.60;1.00
38359;DHT22;42072;48.044;14.416;2023-06-22T02:48:50;18.50;1.00
38359;DHT22;42072;48.044;14.416;2023-06-22T02:51:17;18.40;1.00
38359;DHT22;42072;48.044;14.416;2023-06-22T02:53:44;18.40;1.00
38359;DHT22;42072;48.044;14.416;2023-06-22T02:56:12;18.30;1.00
38359;DHT22;42072;48.044;14.416;2023-06-22T02:58:39;18.30;4.50
38359;DHT22;42072;48.044;14.416;2023-06-22T03:01:07;18.30;6.90
38359;DHT22;42072;48.044;14.416;2023-06-22T03:03:34;18.30;6.40
38359;DHT22;42072;48.044;14.416;2023-06-22T03:06:01;18.20;4.50
38359;DHT22;42072;48.044;14.416;2023-06-22T03:08:28;18.30;4.50
38359;DHT22;42072;48.044;14.416;2023-06-22T03:10:56;18.30;1.00
38359;DHT22;42072;48.044;14.416;2023-06-22T03:13:24;18.40;1.00
38359;DHT22;42072;48.044;14.416;2023-06-22T03:15:51;18.50;1.00
38359;DHT22;42072;48.044;14.416;2023-06-22T03:18:18;18.50;1.00
38359;DHT22;42072;48.044;14.416;2023-06-22T03:20:45;18.50;1.00
38359;DHT22;42072;48.044;14.416;2023-06-22T03:23:12;18.60;1.00
38359;DHT22;42072;48.044;14.416;2023-06-22T03:25:42;18.60;1.00
38359;DHT22;42072;48.044;14.416;2023-06-22T03:28:11;18.60;1.00
38359;DHT22;42072;48.044;14.416;2023-06-22T03:30:38;18.70;1.00
38359;DHT22;42072;48.044;14.416;2023-06-22T03:33:05;18.70;1.00
38359;DHT22;42072;48.044;14.416;2023-06-22T03:35:33;18.80;1.00
38359;DHT22;42072;48.044;14.416;2023-06-22T03:38:00;18.80;1.00
38359;DHT22;42072;48.044;14.416;2023-06-22T03:40:27;19.00;1.00
38359;DHT22;42072;48.044;14.416;2023-06-22T03:42:55;19.00;1.00
38359;DHT22;42072;48.044;14.416;2023-06-22T03:45:23;19.10;1.00
38359;DHT22;42072;48.044;14.416;2023-06-22T03:47:50;19.30;1.00
38359;DHT22;42072;48.044;14.416;2023-06-22T03:50:17;19.40;1.00
38359;DHT22;42072;48.044;14.416;2023-06-22T03:52:47;19.50;1.00
38359;DHT22;42072;48.044;14.416;2023-06-22T03:55:14;19.50;1.00
38359;DHT22;42072;48.044;14.416;2023-06-22T03:57:41;19.50;1.00
38359;DHT22;42072;48.044;14.416;2023-06-22T04:00:09;19.40;1.00
38359;DHT22;42072;48.044;14.416;2023-06-22T04:02:37;19.40;1.00
38359;DHT22;42072;48.044;14.416;2023-06-22T04:05:04;19.50;1.00
38359;DHT22;42072;48.044;14.416;2023-06-22T04:07:32;19.60;1.00
38359;DHT22;42072;48.044;14.416;2023-06-22T04:09:59;19.70;1.00
38359;DHT22;42072;48.044;14.416;2023-06-22T04:12:26;19.90;1.00
38359;DHT22;42072;48.044;14.416;2023-06-22T04:14:53;20.10;1.00
38359;DHT22;42072;48.044;14.416;2023-06-22T04:17:20;20.20;1.00
38359;DHT22;42072;48.044;14.416;2023-06-22T04:19:48;20.40;1.00
38359;DHT22;42072;48.044;14.416;2023-06-22T04:22:15;20.70;99.90
38359;DHT22;42072;48.044;14.416;2023-06-22T04:24:42;21.40;99.90
38359;DHT22;42072;48.044;14.416;2023-06-22T04:27:09;22.20;99.90
38359;DHT22;42072;48.044;14.416;2023-06-22T04:29:36;22.40;99.90
38359;DHT22;42072;48.044;14.416;2023-06-22T04:32:05;22.40;99.90
38359;DHT22;42072;48.044;14.416;2023-06-22T04:34:33;22.50;99.90
38359;DHT22;42072;48.044;14.416;2023-06-22T04:37:00;23.50;99.90
38359;DHT22;42072;48.044;14.416;2023-06-22T04:39:27;24.70;99.90
38359;DHT22;42072;48.044;14.416;2023-06-22T04:41:56;25.90;99.90
38359;DHT22;42072;48.044;14.416;2023-06-22T04:44:27;26.70;99.90
38359;DHT22;42072;48.044;14.416;2023-06-22T04:46:57;27.50;99.90
38359;DHT22;42072;48.044;14.416;2023-06-22T04:49:30;28.20;99.90
38359;DHT22;42072;48.044;14.416;2023-06-22T04:52:12;29.00;99.90
38359;DHT22;42072;48.044;14.416;2023-06-22T04:54:40;29.50;99.90
38359;DHT22;42072;48.044;14.416;2023-06-22T04:57:15;29.70;99.90
38359;DHT22;42072;48.044;14.416;2023-06-22T04:59:42;30.10;99.90
38359;DHT22;42072;48.044;14.416;2023-06-22T05:02:10;30.10;99.90
38359;DHT22;42072;48.044;14.416;2023-06-22T05:04:38;30.50;99.90
38359;DHT22;42072;48.044;14.416;2023-06-22T05:07:06;31.10;99.90
38359;DHT22;42072;48.044;14.416;2023-06-22T05:09:34;31.80;99.90
38359;DHT22;42072;48.044;14.416;2023-06-22T05:12:02;32.00;96.90
38359;DHT22;42072;48.044;14.416;2023-06-22T05:14:34;31.90;96.10
38359;DHT22;42072;48.044;14.416;2023-06-22T05:17:01;32.00;95.30
38359;DHT22;42072;48.044;14.416;2023-06-22T05:19:31;32.50;94.80
38359;DHT22;42072;48.044;14.416;2023-06-22T05:22:01;32.90;87.20
38359;DHT22;42072;48.044;14.416;2023-06-22T05:24:28;33.20;83.40
38359;DHT22;42072;48.044;14.416;2023-06-22T05:26:55;33.20;80.40
38359;DHT22;42072;48.044;14.416;2023-06-22T05:29:23;33.20;77.90
38359;DHT22;42072;48.044;14.416;2023-06-22T05:31:50;33.40;75.50
38359;DHT22;42072;48.044;14.416;2023-06-22T05:34:17;33.50;74.10
38359;DHT22;42072;48.044;14.416;2023-06-22T05:36:44;33.80;72.50
38359;DHT22;42072;48.044;14.416;2023-06-22T05:39:13;34.10;67.80
38359;DHT22;42072;48.044;14.416;2023-06-22T05:41:41;34.20;65.50
38359;DHT22;42072;48.044;14.416;2023-06-22T05:44:08;34.70;60.70
38359;DHT22;42072;48.044;14.416;2023-06-22T05:46:35;34.90;57.00
38359;DHT22;42072;48.044;14.416;2023-06-22T05:49:02;35.00;54.80
38359;DHT22;42072;48.044;14.416;2023-06-22T05:51:29;34.20;58.60
38359;DHT22;42072;48.044;14.416;2023-06-22T05:53:56;34.30;58.10
38359;DHT22;42072;48.044;14.416;2023-06-22T05:56:23;34.30;61.40
38359;DHT22;42072;48.044;14.416;2023-06-22T05:58:51;34.90;56.20
38359;DHT22;42072;48.044;14.416;2023-06-22T06:01:18;35.40;52.10
38359;DHT22;42072;48.044;14.416;2023-06-22T06:03:45;35.30;50.00
38359;DHT22;42072;48.044;14.416;2023-06-22T06:06:12;35.80;46.60
38359;DHT22;42072;48.044;14.416;2023-06-22T06:08:40;35.90;44.80
38359;DHT22;42072;48.044;14.416;2023-06-22T06:11:08;35.30;45.50
38359;DHT22;42072;48.044;14.416;2023-06-22T06:13:35;34.90;49.80
38359;DHT22;42072;48.044;14.416;2023-06-22T06:16:02;34.00;55.70
38359;DHT22;42072;48.044;14.416;2023-06-22T06:18:29;34.20;59.00
38359;DHT22;42072;48.044;14.416;2023-06-22T06:20:56;33.70;63.00
38359;DHT22;42072;48.044;14.416;2023-06-22T06:23:23;33.50;65.10
38359;DHT22;42072;48.044;14.416;2023-06-22T06:25:50;33.20;68.20
38359;DHT22;42072;48.044;14.416;2023-06-22T06:28:18;32.30;73.20
38359;DHT22;42072;48.044;14.416;2023-06-22T06:30:45;32.30;80.40
38359;DHT22;42072;48.044;14.416;2023-06-22T06:33:14;31.40;85.60
38359;DHT22;42072;48.044;14.416;2023-06-22T06:35:41;30.40;94.30
38359;DHT22;42072;48.044;14.416;2023-06-22T06:38:08;29.80;99.30
38359;DHT22;42072;48.044;14.416;2023-06-22T06:40:35;28.70;99.90
38359;DHT22;42072;48.044;14.416;2023-06-22T06:43:02;27.90;99.90
38359;DHT22;42072;48.044;14.416;2023-06-22T06:45:30;27.60;99.90
38359;DHT22;42072;48.044;14.416;2023-06-22T06:48:00;27.30;99.90
38359;DHT22;42072;48.044;14.416;2023-06-22T06:50:27;27.20;99.90
38359;DHT22;42072;48.044;14.416;2023-06-22T06:52:56;27.10;99.90
38359;DHT22;42072;48.044;14.416;2023-06-22T06:55:26;27.00;99.90
38359;DHT22;42072;48.044;14.416;2023-06-22T06:57:53;27.10;99.90
38359;DHT22;42072;48.044;14.416;2023-06-22T07:00:20;27.30;99.90
38359;DHT22;42072;48.044;14.416;2023-06-22T07:02:48;26.90;99.90
38359;DHT22;42072;48.044;14.416;2023-06-22T07:05:16;27.10;99.90
38359;DHT22;42072;48.044;14.416;2023-06-22T07:07:43;27.00;99.90
38359;DHT22;42072;48.044;14.416;2023-06-22T07:10:10;27.00;99.90
38359;DHT22;42072;48.044;14.416;2023-06-22T07:12:37;27.00;99.90
38359;DHT22;42072;48.044;14.416;2023-06-22T07:15:06;26.90;99.90
38359;DHT22;42072;48.044;14.416;2023-06-22T07:17:37;26.90;99.90
38359;DHT22;42072;48.044;14.416;2023-06-22T07:20:07;26.90;99.90
38359;DHT22;42072;48.044;14.416;2023-06-22T07:22:40;27.40;99.90
38359;DHT22;42072;48.044;14.416;2023-06-22T07:25:07;27.50;99.90
38359;DHT22;42072;48.044;14.416;2023-06-22T07:30:24;27.80;99.90
38359;DHT22;42072;48.044;14.416;2023-06-22T07:32:52;28.00;99.90
38359;DHT22;42072;48.044;14.416;2023-06-22T07:35:19;28.20;99.90
38359;DHT22;42072;48.044;14.416;2023-06-22T07:37:46;28.40;99.90
38359;DHT22;42072;48.044;14.416;2023-06-22T07:40:13;28.50;99.90
38359;DHT22;42072;48.044;14.416;2023-06-22T07:42:41;28.00;99.90
38359;DHT22;42072;48.044;14.416;2023-06-22T07:45:09;28.20;99.90
38359;DHT22;42072;48.044;14.416;2023-06-22T07:47:36;28.30;99.90
38359;DHT22;42072;48.044;14.416;2023-06-22T07:50:04;28.60;99.90
38359;DHT22;42072;48.044;14.416;2023-06-22T07:52:32;28.40;99.90
38359;DHT22;42072;48.044;14.416;2023-06-22T07:54:59;28.80;99.90
38359;DHT22;42072;48.044;14.416;2023-06-22T07:57:26;28.40;99.90
38359;DHT22;42072;48.044;14.416;2023-06-22T08:00:03;28.40;99.90
38359;DHT22;42072;48.044;14.416;2023-06-22T08:02:42;28.40;99.90
38359;DHT22;42072;48.044;14.416;2023-06-22T08:05:10;28.30;99.90
38359;DHT22;42072;48.044;14.416;2023-06-22T08:07:40;28.40;99.90
38359;DHT22;42072;48.044;14.416;2023-06-22T08:10:12;28.60;99.90
38359;DHT22;42072;48.044;14.416;2023-06-22T08:12:40;28.70;99.90
38359;DHT22;42072;48.044;14.416;2023-06-22T08:15:08;28.90;99.90
38359;DHT22;42072;48.044;14.416;2023-06-22T08:17:37;28.80;99.90
38359;DHT22;42072;48.044;14.416;2023-06-22T08:20:06;28.70;99.90
38359;DHT22;42072;48.044;14.416;2023-06-22T08:22:36;28.80;99.90
38359;DHT22;42072;48.044;14.416;2023-06-22T08:25:04;28.60;99.90
38359;DHT22;42072;48.044;14.416;2023-06-22T08:27:32;29.20;99.90
38359;DHT22;42072;48.044;14.416;2023-06-22T08:30:00;29.40;99.90
38359;DHT22;42072;48.044;14.416;2023-06-22T08:32:28;29.70;99.90
38359;DHT22;42072;48.044;14.416;2023-06-22T08:34:57;29.40;99.90
38359;DHT22;42072;48.044;14.416;2023-06-22T08:37:24;29.60;99.90
38359;DHT22;42072;48.044;14.416;2023-06-22T08:39:59;29.70;99.90
38359;DHT22;42072;48.044;14.416;2023-06-22T08:42:28;29.90;99.90
38359;DHT22;42072;48.044;14.416;2023-06-22T08:44:55;29.80;99.90
38359;DHT22;42072;48.044;14.416;2023-06-22T08:47:22;29.80;99.90
38359;DHT22;42072;48.044;14.416;2023-06-22T08:49:50;29.50;99.90
38359;DHT22;42072;48.044;14.416;2023-06-22T08:52:18;29.20;99.90
38359;DHT22;42072;48.044;14.416;2023-06-22T08:54:47;29.20;99.90
38359;DHT22;42072;48.044;14.416;2023-06-22T08:57:15;29.40;99.90
38359;DHT22;42072;48.044;14.416;2023-06-22T08:59:43;29.30;99.90
38359;DHT22;42072;48.044;14.416;2023-06-22T09:02:10;29.70;99.90
38359;DHT22;42072;48.044;14.416;2023-06-22T09:04:37;29.40;99.90
38359;DHT22;42072;48.044;14.416;2023-06-22T09:07:05;29.70;99.90
38359;DHT22;42072;48.044;14.416;2023-06-22T09:09:32;29.80;99.90
38359;DHT22;42072;48.044;14.416;2023-06-22T09:11:59;29.80;99.90
38359;DHT22;42072;48.044;14.416;2023-06-22T09:14:27;29.90;99.90
38359;DHT22;42072;48.044;14.416;2023-06-22T09:16:54;30.20;99.90
38359;DHT22;42072;48.044;14.416;2023-06-22T09:19:21;30.20;99.90
38359;DHT22;42072;48.044;14.416;2023-06-22T09:21:48;29.80;99.90
38359;DHT22;42072;48.044;14.416;2023-06-22T09:24:15;29.60;99.90
38359;DHT22;42072;48.044;14.416;2023-06-22T09:26:42;29.50;99.90
38359;DHT22;42072;48.044;14.416;2023-06-22T09:29:10;29.90;99.90
38359;DHT22;42072;48.044;14.416;2023-06-22T09:31:37;30.00;99.90
38359;DHT22;42072;48.044;14.416;2023-06-22T09:34:04;30.20;99.90
38359;DHT22;42072;48.044;14.416;2023-06-22T09:36:31;30.20;99.90
38359;DHT22;42072;48.044;14.416;2023-06-22T09:38:58;30.60;99.90
38359;DHT22;42072;48.044;14.416;2023-06-22T09:41:27;30.60;99.90
38359;DHT22;42072;48.044;14.416;2023-06-22T09:43:54;30.70;99.90
38359;DHT22;42072;48.044;14.416;2023-06-22T09:46:23;30.80;99.90
38359;DHT22;42072;48.044;14.416;2023-06-22T09:48:52;30.90;99.90
38359;DHT22;42072;48.044;14.416;2023-06-22T09:51:19;31.20;99.90
38359;DHT22;42072;48.044;14.416;2023-06-22T09:53:48;31.30;99.90
38359;DHT22;42072;48.044;14.416;2023-06-22T09:56:16;31.30;99.90
38359;DHT22;42072;48.044;14.416;2023-06-22T09:58:45;31.40;99.90
38359;DHT22;42072;48.044;14.416;2023-06-22T10:01:13;31.00;99.90
38359;DHT22;42072;48.044;14.416;2023-06-22T10:03:44;30.60;99.90
38359;DHT22;42072;48.044;14.416;2023-06-22T10:06:11;30.50;99.90
38359;DHT22;42072;48.044;14.416;2023-06-22T10:08:38;30.20;99.90
38359;DHT22;42072;48.044;14.416;2023-06-22T10:11:07;30.40;99.90
38359;DHT22;42072;48.044;14.416;2023-06-22T10:13:34;30.50;99.90
38359;DHT22;42072;48.044;14.416;2023-06-22T10:16:01;30.80;99.90
38359;DHT22;42072;48.044;14.416;2023-06-22T10:18:29;31.00;99.90
38359;DHT22;42072;48.044;14.416;2023-06-22T10:20:57;31.30;99.90
38359;DHT22;42072;48.044;14.416;2023-06-22T10:23:24;31.40;99.90
38359;DHT22;42072;48.044;14.416;2023-06-22T10:25:52;31.50;99.90
38359;DHT22;42072;48.044;14.416;2023-06-22T10:28:19;31.40;99.90
38359;DHT22;42072;48.044;14.416;2023-06-22T10:30:46;31.80;99.90
38359;DHT22;42072;48.044;14.416;2023-06-22T10:33:13;31.50;99.90
38359;DHT22;42072;48.044;14.416;2023-06-22T10:35:40;31.70;99.90
38359;DHT22;42072;48.044;14.416;2023-06-22T10:38:08;32.00;99.90
38359;DHT22;42072;48.044;14.416;2023-06-22T10:40:35;31.80;99.90
38359;DHT22;42072;48.044;14.416;2023-06-22T10:43:02;31.70;99.90
38359;DHT22;42072;48.044;14.416;2023-06-22T10:45:29;31.90;99.90
38359;DHT22;42072;48.044;14.416;2023-06-22T10:47:57;32.10;99.90
38359;DHT22;42072;48.044;14.416;2023-06-22T10:50:25;32.30;99.90
38359;DHT22;42072;48.044;14.416;2023-06-22T10:52:53;32.30;99.90
38359;DHT22;42072;48.044;14.416;2023-06-22T10:55:23;31.90;99.90
38359;DHT22;42072;48.044;14.416;2023-06-22T10:57:50;31.70;99.90
38359;DHT22;42072;48.044;14.416;2023-06-22T11:00:17;31.50;99.90
38359;DHT22;42072;48.044;14.416;2023-06-22T11:02:44;31.50;99.90
38359;DHT22;42072;48.044;14.416;2023-06-22T11:05:12;31.70;99.90
38359;DHT22;42072;48.044;14.416;2023-06-22T11:07:43;31.80;99.90
38359;DHT22;42072;48.044;14.416;2023-06-22T11:10:13;32.10;99.90
38359;DHT22;42072;48.044;14.416;2023-06-22T11:12:40;32.40;99.90
38359;DHT22;42072;48.044;14.416;2023-06-22T11:15:08;32.30;99.90
38359;DHT22;42072;48.044;14.416;2023-06-22T11:17:35;32.10;99.90
38359;DHT22;42072;48.044;14.416;2023-06-22T11:20:03;32.10;99.90
38359;DHT22;42072;48.044;14.416;2023-06-22T11:22:40;31.80;99.90
38359;DHT22;42072;48.044;14.416;2023-06-22T11:25:08;32.00;99.90
38359;DHT22;42072;48.044;14.416;2023-06-22T11:27:36;32.10;99.90
38359;DHT22;42072;48.044;14.416;2023-06-22T11:30:03;31.90;99.90
38359;DHT22;42072;48.044;14.416;2023-06-22T11:32:30;32.10;99.90
38359;DHT22;42072;48.044;14.416;2023-06-22T11:34:58;32.50;99.90
38359;DHT22;42072;48.044;14.416;2023-06-22T11:37:25;32.70;99.90
38359;DHT22;42072;48.044;14.416;2023-06-22T11:39:52;33.00;99.90
38359;DHT22;42072;48.044;14.416;2023-06-22T11:42:32;32.60;99.90
38359;DHT22;42072;48.044;14.416;2023-06-22T11:44:59;32.50;99.90
38359;DHT22;42072;48.044;14.416;2023-06-22T11:47:26;32.80;99.90
38359;DHT22;42072;48.044;14.416;2023-06-22T11:49:53;32.80;99.90
38359;DHT22;42072;48.044;14.416;2023-06-22T11:52:21;33.00;99.90
38359;DHT22;42072;48.044;14.416;2023-06-22T11:54:48;33.00;99.90
38359;DHT22;42072;48.044;14.416;2023-06-22T11:57:16;33.10;99.90
38359;DHT22;42072;48.044;14.416;2023-06-22T11:59:43;33.40;99.90
38359;DHT22;42072;48.044;14.416;2023-06-22T12:02:10;33.30;99.90
38359;DHT22;42072;48.044;14.416;2023-06-22T12:04:37;33.60;99.90
38359;DHT22;42072;48.044;14.416;2023-06-22T12:07:04;33.10;99.90
38359;DHT22;42072;48.044;14.416;2023-06-22T12:09:31;32.80;99.90
38359;DHT22;42072;48.044;14.416;2023-06-22T12:11:59;32.80;99.90
38359;DHT22;42072;48.044;14.416;2023-06-22T12:14:26;32.70;99.90
38359;DHT22;42072;48.044;14.416;2023-06-22T12:16:56;32.50;99.90
38359;DHT22;42072;48.044;14.416;2023-06-22T12:19:23;32.40;99.90
38359;DHT22;42072;48.044;14.416;2023-06-22T12:21:51;32.30;99.90
38359;DHT22;42072;48.044;14.416;2023-06-22T12:24:18;32.60;99.90
38359;DHT22;42072;48.044;14.416;2023-06-22T12:26:45;32.30;99.90
38359;DHT22;42072;48.044;14.416;2023-06-22T12:29:12;32.50;99.90
38359;DHT22;42072;48.044;14.416;2023-06-22T12:31:39;32.90;99.90
38359;DHT22;42072;48.044;14.416;2023-06-22T12:34:06;33.20;99.90
38359;DHT22;42072;48.044;14.416;2023-06-22T12:36:34;32.90;99.90
38359;DHT22;42072;48.044;14.416;2023-06-22T12:39:01;33.10;99.90
38359;DHT22;42072;48.044;14.416;2023-06-22T12:41:28;33.30;99.90
38359;DHT22;42072;48.044;14.416;2023-06-22T12:43:56;33.50;99.90
38359;DHT22;42072;48.044;14.416;2023-06-22T12:46:23;33.40;99.90
38359;DHT22;42072;48.044;14.416;2023-06-22T12:48:50;33.00;99.90
38359;DHT22;42072;48.044;14.416;2023-06-22T12:51:26;32.80;99.90
38359;DHT22;42072;48.044;14.416;2023-06-22T12:53:53;33.00;99.90
38359;DHT22;42072;48.044;14.416;2023-06-22T12:56:20;33.20;99.90
38359;DHT22;42072;48.044;14.416;2023-06-22T12:58:47;33.00;99.90
38359;DHT22;42072;48.044;14.416;2023-06-22T13:01:14;33.20;99.90
38359;DHT22;42072;48.044;14.416;2023-06-22T13:03:42;33.20;99.90
38359;DHT22;42072;48.044;14.416;2023-06-22T13:06:09;33.50;99.90
38359;DHT22;42072;48.044;14.416;2023-06-22T13:08:36;33.40;99.90
38359;DHT22;42072;48.044;14.416;2023-06-22T13:11:24;32.90;99.90
38359;DHT22;42072;48.044;14.416;2023-06-22T13:13:51;32.90;99.90
38359;DHT22;42072;48.044;14.416;2023-06-22T13:16:18;32.90;99.90
38359;DHT22;42072;48.044;14.416;2023-06-22T13:18:45;32.90;99.90
38359;DHT22;42072;48.044;14.416;2023-06-22T13:21:12;32.80;99.90
38359;DHT22;42072;48.044;14.416;2023-06-22T13:23:41;32.90;99.90
38359;DHT22;42072;48.044;14.416;2023-06-22T13:26:08;33.10;99.90
38359;DHT22;42072;48.044;14.416;2023-06-22T13:28:35;33.30;99.90
38359;DHT22;42072;48.044;14.416;2023-06-22T13:31:02;33.50;99.90
38359;DHT22;42072;48.044;14.416;2023-06-22T13:33:29;33.60;99.90
38359;DHT22;42072;48.044;14.416;2023-06-22T13:35:57;33.70;99.90
38359;DHT22;42072;48.044;14.416;2023-06-22T13:38:24;34.00;99.90
38359;DHT22;42072;48.044;14.416;2023-06-22T13:40:51;34.00;99.90
38359;DHT22;42072;48.044;14.416;2023-06-22T13:43:18;33.60;99.90
38359;DHT22;42072;48.044;14.416;2023-06-22T13:45:45;34.00;99.90
38359;DHT22;42072;48.044;14.416;2023-06-22T13:48:12;33.70;99.90
38359;DHT22;42072;48.044;14.416;2023-06-22T13:50:40;33.80;99.90
38359;DHT22;42072;48.044;14.416;2023-06-22T13:53:07;33.70;99.90
38359;DHT22;42072;48.044;14.416;2023-06-22T13:55:34;33.60;99.90
38359;DHT22;42072;48.044;14.416;2023-06-22T13:58:01;33.40;99.90
38359;DHT22;42072;48.044;14.416;2023-06-22T14:00:28;33.30;99.90
38359;DHT22;42072;48.044;14.416;2023-06-22T14:02:56;33.40;99.90
38359;DHT22;42072;48.044;14.416;2023-06-22T14:05:23;33.40;99.90
38359;DHT22;42072;48.044;14.416;2023-06-22T14:07:50;33.80;99.90
38359;DHT22;42072;48.044;14.416;2023-06-22T14:10:17;33.70;99.90
38359;DHT22;42072;48.044;14.416;2023-06-22T14:12:44;33.70;99.90
38359;DHT22;42072;48.044;14.416;2023-06-22T14:15:11;33.40;99.90
38359;DHT22;42072;48.044;14.416;2023-06-22T14:17:38;33.70;99.90
38359;DHT22;42072;48.044;14.416;2023-06-22T14:20:06;33.40;99.90
38359;DHT22;42072;48.044;14.416;2023-06-22T14:22:35;33.60;99.90
38359;DHT22;42072;48.044;14.416;2023-06-22T14:25:04;33.60;99.90
38359;DHT22;42072;48.044;14.416;2023-06-22T14:27:31;33.80;99.90
38359;DHT22;42072;48.044;14.416;2023-06-22T14:29:58;33.50;99.90
38359;DHT22;42072;48.044;14.416;2023-06-22T14:32:27;33.40;99.90
38359;DHT22;42072;48.044;14.416;2023-06-22T14:34:56;33.30;99.90
38359;DHT22;42072;48.044;14.416;2023-06-22T14:37:24;33.40;99.90
38359;DHT22;42072;48.044;14.416;2023-06-22T14:39:51;33.10;99.90
38359;DHT22;42072;48.044;14.416;2023-06-22T14:42:18;33.20;99.90
38359;DHT22;42072;48.044;14.416;2023-06-22T14:44:45;33.50;99.90
38359;DHT22;42072;48.044;14.416;2023-06-22T14:47:12;33.60;99.90
38359;DHT22;42072;48.044;14.416;2023-06-22T14:49:39;33.70;99.90
38359;DHT22;42072;48.044;14.416;2023-06-22T14:52:08;33.40;99.90
38359;DHT22;42072;48.044;14.416;2023-06-22T14:54:35;33.40;99.90
38359;DHT22;42072;48.044;14.416;2023-06-22T14:57:02;33.20;99.90
38359;DHT22;42072;48.044;14.416;2023-06-22T14:59:29;33.00;99.90
38359;DHT22;42072;48.044;14.416;2023-06-22T15:01:56;32.80;99.90
38359;DHT22;42072;48.044;14.416;2023-06-22T15:04:23;32.90;99.90
38359;DHT22;42072;48.044;14.416;2023-06-22T15:06:50;32.90;99.90
38359;DHT22;42072;48.044;14.416;2023-06-22T15:09:17;32.90;99.90
38359;DHT22;42072;48.044;14.416;2023-06-22T15:11:44;32.90;99.90
38359;DHT22;42072;48.044;14.416;2023-06-22T15:14:13;32.60;99.90
38359;DHT22;42072;48.044;14.416;2023-06-22T15:16:41;32.80;99.90
38359;DHT22;42072;48.044;14.416;2023-06-22T15:19:08;32.90;99.90
38359;DHT22;42072;48.044;14.416;2023-06-22T15:21:36;32.80;99.90
38359;DHT22;42072;48.044;14.416;2023-06-22T15:24:03;32.90;99.90
38359;DHT22;42072;48.044;14.416;2023-06-22T15:26:31;32.80;99.90
38359;DHT22;42072;48.044;14.416;2023-06-22T15:28:58;32.80;99.90